Time;durP1;ratioP1;P1;durP2;ratioP2;P2;SDS_P1;SDS_P2;PMS_P1;PMS_P2;Temp;Humidity;BMP_temperature;BMP_pressure;BME280_temperature;BME280_humidity;BME280_pressure;Samples;Min_cycle;Max_cycle;Signal;HPM_P1;HPM_P2
2022/04/28 00:01:42;;;;;;;18.70;10.53;;;;;;;6.38;77.16;101357.66;3487826;84;99197;-82
2022/04/28 00:06:44;;;;;;;17.60;10.27;;;;;;;6.28;77.13;101351.16;3496836;83;98639;-82
2022/04/28 00:11:45;;;;;;;16.32;9.35;;;;;;;6.24;77.30;101348.28;3491652;83;98794;-83
2022/04/28 00:16:47;;;;;;;16.60;10.23;;;;;;;6.16;77.46;101346.36;3499482;83;98966;-83
2022/04/28 00:21:47;;;;;;;18.87;9.03;;;;;;;6.00;77.86;101354.04;3482761;84;99206;-83
2022/04/28 00:26:48;;;;;;;14.30;8.10;;;;;;;5.89;78.15;101357.66;3465733;84;98748;-82
2022/04/28 00:31:49;;;;;;;15.50;7.57;;;;;;;5.82;78.66;101349.70;3464628;84;98391;-82
2022/04/28 00:36:50;;;;;;;15.63;7.43;;;;;;;5.76;78.90;101344.14;3451142;84;98520;-83
2022/04/28 00:41:51;;;;;;;13.07;7.50;;;;;;;5.69;79.17;101355.57;3442554;84;98788;-83
2022/04/28 00:46:52;;;;;;;15.43;7.70;;;;;;;5.64;79.27;101363.10;3559717;82;98657;-82
2022/04/28 00:51:55;;;;;;;14.20;7.07;;;;;;;5.62;79.10;101358.53;3554665;82;98714;-83
2022/04/28 00:56:57;;;;;;;13.50;6.33;;;;;;;5.56;79.72;101358.46;3478611;83;98723;-82
2022/04/28 01:01:58;;;;;;;14.20;6.77;;;;;;;5.50;79.66;101361.89;3518046;83;98593;-82
2022/04/28 01:06:59;;;;;;;12.80;6.10;;;;;;;5.46;79.92;101357.41;3543619;83;98476;-83
2022/04/28 01:12:00;;;;;;;13.00;6.90;;;;;;;5.41;80.23;101361.66;3523854;83;98631;-82
2022/04/28 01:17:02;;;;;;;13.17;6.40;;;;;;;5.37;80.21;101356.03;3495462;84;98744;-82
2022/04/28 01:22:05;;;;;;;18.10;7.33;;;;;;;5.33;79.88;101357.78;3497830;83;99094;-82
2022/04/28 01:27:06;;;;;;;17.57;7.87;;;;;;;5.26;80.23;101354.73;3487129;84;99007;-82
2022/04/28 01:32:08;;;;;;;16.48;7.78;;;;;;;5.22;80.56;101358.41;3506428;83;98651;-82
2022/04/28 01:37:09;;;;;;;17.92;8.55;;;;;;;5.16;80.65;101354.22;3488415;83;98936;-81
2022/04/28 01:42:10;;;;;;;17.50;7.50;;;;;;;5.12;80.65;101348.59;3489866;83;99004;-82
2022/04/28 01:47:11;;;;;;;15.17;7.43;;;;;;;5.11;80.45;101352.45;3520405;83;98896;-82
2022/04/28 01:57:31;;;;;;;13.93;7.00;;;;;;;5.03;81.28;101359.27;3492656;83;98615;-82
2022/04/28 02:02:32;;;;;;;14.93;7.00;;;;;;;4.98;81.26;101359.41;3545944;82;98316;-83
2022/04/28 02:07:33;;;;;;;12.70;6.73;;;;;;;4.94;81.59;101357.06;3542862;82;98278;-82
2022/04/28 02:12:34;;;;;;;13.97;7.13;;;;;;;4.91;81.59;101361.80;3484534;82;98877;-83
2022/04/28 02:17:38;;;;;;;13.23;6.40;;;;;;;4.89;82.29;101368.93;3507875;82;99059;-83
2022/04/28 02:22:39;;;;;;;14.25;7.03;;;;;;;4.88;81.50;101363.23;3530364;82;98973;-83
2022/04/28 02:27:40;;;;;;;14.53;7.07;;;;;;;4.86;81.80;101370.91;3523289;83;99086;-82
2022/04/28 02:38:00;;;;;;;12.85;7.20;;;;;;;4.83;81.85;101363.92;3505885;83;34867;-82
2022/04/28 02:43:01;;;;;;;13.03;6.63;;;;;;;4.81;82.40;101362.08;3528170;82;98578;-82
2022/04/28 02:48:02;;;;;;;13.63;6.70;;;;;;;4.78;82.81;101368.16;3510398;82;98545;-82
2022/04/28 02:53:03;;;;;;;14.40;7.87;;;;;;;4.74;82.75;101372.66;3443548;84;98974;-83
2022/04/28 02:58:05;;;;;;;16.60;7.37;;;;;;;4.70;82.65;101367.58;3519209;83;98789;-81
2022/04/28 03:03:06;;;;;;;15.03;8.07;;;;;;;4.66;83.13;101367.95;3516704;83;99065;-82
2022/04/28 03:13:26;;;;;;;15.98;9.40;;;;;;;4.58;83.73;101374.98;3444589;84;98529;-82
2022/04/28 03:18:28;;;;;;;15.47;7.90;;;;;;;4.53;83.84;101372.38;3515926;82;98866;-82
2022/04/28 03:23:29;;;;;;;17.03;8.93;;;;;;;4.48;84.18;101372.52;3508840;83;99107;-82
2022/04/28 03:28:34;;;;;;;19.90;9.00;;;;;;;4.45;84.17;101377.80;3447089;84;98754;-82
2022/04/28 03:33:33;;;;;;;15.32;8.35;;;;;;;4.40;83.96;101379.29;3496847;83;99218;-82
2022/04/28 03:38:33;;;;;;;21.53;8.93;;;;;;;4.34;84.19;101388.17;3517580;82;25919;-82
2022/04/28 03:43:34;;;;;;;17.37;8.00;;;;;;;4.30;85.07;101395.90;3444497;83;98686;-82
2022/04/28 03:48:37;;;;;;;17.27;7.97;;;;;;;4.26;85.11;101404.47;3464350;83;98931;-82
2022/04/28 03:53:38;;;;;;;14.33;7.17;;;;;;;4.22;85.33;101410.29;3487683;82;98971;-83
2022/04/28 03:58:39;;;;;;;16.50;8.00;;;;;;;4.19;85.18;101410.35;3493018;84;99073;-82
2022/04/28 04:03:41;;;;;;;18.60;9.37;;;;;;;4.19;85.51;101419.07;3496051;83;98766;-82
2022/04/28 04:08:41;;;;;;;17.80;8.43;;;;;;;4.20;85.89;101426.16;3493215;84;98697;-83
2022/04/28 04:13:43;;;;;;;18.90;9.37;;;;;;;4.19;85.79;101434.05;3497767;84;98378;-81
2022/04/28 04:18:44;;;;;;;22.53;10.37;;;;;;;4.21;86.52;101442.74;3503158;83;98448;-82
2022/04/28 04:23:45;;;;;;;14.33;7.57;;;;;;;4.21;86.26;101448.98;3498746;83;99191;-82
2022/04/28 04:28:46;;;;;;;17.00;7.80;;;;;;;4.22;86.15;101455.25;3495540;83;99268;-81
2022/04/28 04:33:47;;;;;;;13.17;7.77;;;;;;;4.27;86.11;101461.36;3481145;83;98687;-81
2022/04/28 04:38:48;;;;;;;13.53;6.92;;;;;;;4.31;86.29;101466.45;3494541;83;99110;-82
2022/04/28 04:43:49;;;;;;;13.75;7.05;;;;;;;4.36;86.68;101476.44;3500268;83;98737;-82
2022/04/28 04:48:49;;;;;;;17.63;6.57;;;;;;;4.40;86.31;101482.86;3563903;82;98948;-82
2022/04/28 04:53:50;;;;;;;15.00;7.03;;;;;;;4.48;86.52;101495.76;3513052;81;98822;-82
2022/04/28 04:58:51;;;;;;;15.67;6.87;;;;;;;4.53;87.28;101490.97;3503710;83;99125;-82
2022/04/28 05:03:52;;;;;;;15.87;7.17;;;;;;;4.61;87.06;101490.23;3538396;82;98711;-81
2022/04/28 05:08:53;;;;;;;20.43;7.47;;;;;;;4.68;87.33;101489.77;3486914;84;98742;-82
2022/04/28 05:13:54;;;;;;;12.83;6.27;;;;;;;4.76;86.94;101484.36;3486311;84;98845;-83
2022/04/28 05:18:54;;;;;;;19.70;7.13;;;;;;;4.86;86.82;101494.23;3554922;82;98646;-83
2022/04/28 05:23:55;;;;;;;15.50;7.27;;;;;;;4.97;86.72;101488.74;3496994;84;99078;-84
2022/04/28 05:28:56;;;;;;;15.13;7.13;;;;;;;5.15;87.09;101494.52;3475975;83;99180;-83
2022/04/28 05:33:57;;;;;;;14.20;6.50;;;;;;;5.44;87.15;101495.58;3530051;83;98676;-86
2022/04/28 05:38:58;;;;;;;16.82;7.85;;;;;;;5.93;87.57;101502.61;3546167;83;98740;-85
2022/04/28 05:49:19;;;;;;;15.17;6.73;;;;;;;7.24;87.11;101515.70;3479014;84;98534;-87
2022/04/28 05:54:20;;;;;;;13.77;6.07;;;;;;;7.99;85.14;101523.84;3494211;83;98586;-87
2022/04/28 05:59:21;;;;;;;11.57;5.17;;;;;;;8.53;83.71;101524.17;3507805;84;99047;-86
2022/04/28 06:04:22;;;;;;;13.03;6.30;;;;;;;9.00;81.76;101519.96;3501070;83;98997;-86
2022/04/28 06:09:23;;;;;;;10.47;4.67;;;;;;;9.37;80.54;101525.75;3457983;84;98717;-85
2022/04/28 06:14:24;;;;;;;11.40;5.60;;;;;;;9.69;79.55;101526.22;3503823;83;98719;-88
2022/04/28 06:19:25;;;;;;;12.80;5.83;;;;;;;10.03;78.74;101533.19;3506026;83;98700;-88
2022/04/28 06:24:27;;;;;;;13.73;5.60;;;;;;;10.14;77.50;101534.34;3440809;84;98908;-86
2022/04/28 06:29:28;;;;;;;11.77;5.50;;;;;;;10.18;77.34;101529.16;3458640;84;98976;-86
2022/04/28 06:34:28;;;;;;;10.58;5.53;;;;;;;10.25;77.09;101528.58;3444904;84;98966;-85
2022/04/28 06:39:29;;;;;;;13.27;5.90;;;;;;;10.34;76.53;101527.84;3443607;84;98986;-86
2022/04/28 06:44:30;;;;;;;11.37;5.53;;;;;;;10.44;75.62;101541.94;3446545;85;98910;-86
2022/04/28 06:49:33;;;;;;;12.10;5.58;;;;;;;10.67;75.35;101531.98;3500779;83;99164;-86
2022/04/28 06:54:34;;;;;;;14.23;6.30;;;;;;;10.74;74.69;101535.52;3487618;83;99151;-87
2022/04/28 06:59:35;;;;;;;12.27;6.40;;;;;;;10.84;73.52;101546.81;3496494;84;99091;-85
2022/04/28 07:04:36;;;;;;;15.70;5.83;;;;;;;10.74;72.40;101551.44;3453830;85;99066;-86
2022/04/28 07:09:37;;;;;;;12.65;5.45;;;;;;;10.83;72.81;101552.66;3439140;86;99072;-86
2022/04/28 07:14:38;;;;;;;14.23;5.47;;;;;;;10.77;71.10;101558.20;3436910;84;98988;-82
2022/04/28 07:19:39;;;;;;;11.57;5.97;;;;;;;10.71;70.94;101555.48;3500679;84;31724;-85
2022/04/28 07:24:40;;;;;;;11.07;5.87;;;;;;;10.77;71.30;101565.09;3429955;85;98865;-85
2022/04/28 07:29:41;;;;;;;10.03;5.07;;;;;;;10.88;70.64;101564.80;3448510;85;99367;-85
2022/04/28 07:34:42;;;;;;;14.77;6.13;;;;;;;11.06;70.52;101570.25;3431550;85;99000;-87
2022/04/28 07:39:43;;;;;;;10.67;5.90;;;;;;;11.16;70.08;101570.52;3448259;85;99127;-88
2022/04/28 07:44:44;;;;;;;12.43;5.77;;;;;;;11.27;69.20;101579.88;3434164;84;99036;-87
2022/04/28 07:49:45;;;;;;;11.80;5.72;;;;;;;11.35;68.58;101580.86;3501505;84;31651;-89
2022/04/28 07:54:46;;;;;;;13.40;5.17;;;;;;;11.50;68.45;101585.00;3495005;82;98974;-86
2022/04/28 07:59:47;;;;;;;11.70;5.57;;;;;;;11.67;68.09;101589.41;3494619;83;99689;-85
2022/04/28 08:04:48;;;;;;;11.33;5.37;;;;;;;11.85;68.12;101592.02;3530568;82;99440;-86
2022/04/28 08:09:49;;;;;;;12.93;5.37;;;;;;;12.07;67.65;101588.60;3521635;83;99034;-86
2022/04/28 08:14:50;;;;;;;11.90;6.10;;;;;;;12.29;66.03;101592.88;3493317;83;99341;-86
2022/04/28 08:19:50;;;;;;;11.63;5.20;;;;;;;12.64;67.06;101602.53;3501351;84;35076;-86
2022/04/28 08:24:51;;;;;;;10.97;5.47;;;;;;;13.13;67.57;101600.80;3476422;84;99120;-86
2022/04/28 08:29:52;;;;;;;11.43;5.22;;;;;;;13.91;66.87;101591.32;3483446;83;98958;-86
2022/04/28 08:34:53;;;;;;;11.83;4.80;;;;;;;14.76;65.05;101594.95;3474111;83;99010;-87
2022/04/28 08:39:54;;;;;;;11.20;5.17;;;;;;;15.67;64.45;101597.95;3472312;83;98983;-86
2022/04/28 08:44:59;;;;;;;10.23;4.65;;;;;;;16.51;62.11;101599.39;3497960;83;99297;-85
2022/04/28 08:50:00;;;;;;;9.85;4.70;;;;;;;17.64;61.25;101597.80;3525575;83;34849;-87
2022/04/28 08:55:02;;;;;;;9.90;4.25;;;;;;;18.56;59.75;101591.78;3512134;83;98972;-86
2022/04/28 09:00:05;;;;;;;9.98;4.58;;;;;;;19.17;56.36;101595.30;3551748;82;99105;-86
2022/04/28 09:05:08;;;;;;;9.30;4.83;;;;;;;19.97;54.94;101596.77;3542300;81;98900;-86
2022/04/28 09:10:26;;;;;;;8.83;4.12;;;;;;;20.68;53.30;101596.26;3533536;83;98969;-88
2022/04/28 09:15:27;;;;;;;11.53;4.47;;;;;;;21.64;50.47;101605.75;3535443;83;98811;-87
2022/04/28 09:20:28;;;;;;;9.00;4.28;;;;;;;22.28;50.40;101611.91;3547452;83;35684;-87
2022/04/28 09:25:31;;;;;;;10.15;4.53;;;;;;;22.82;48.16;101601.27;3546063;83;98924;-87
2022/04/28 09:30:47;;;;;;;8.60;4.35;;;;;;;23.11;45.74;101599.47;3544397;83;98887;-88
2022/04/28 09:35:53;;;;;;;10.20;4.58;;;;;;;23.52;43.48;101607.58;3531678;83;99768;-89
2022/04/28 09:46:13;;;;;;;7.80;4.15;;;;;;;24.07;40.55;101613.68;3550365;83;99306;-87
2022/04/28 09:51:22;;;;;;;14.53;5.12;;;;;;;24.28;41.34;101607.51;3544232;82;98782;-84
2022/04/28 09:56:24;;;;;;;12.40;4.78;;;;;;;24.46;39.17;101598.77;3487380;83;25957;-84
2022/04/28 10:01:28;;;;;;;10.28;4.50;;;;;;;25.04;39.10;101598.94;3521663;83;99180;-86
2022/04/28 10:06:35;;;;;;;7.77;3.63;;;;;;;25.58;39.12;101596.08;3519855;83;98926;-85
2022/04/28 10:11:37;;;;;;;9.28;4.55;;;;;;;26.06;37.68;101595.10;3518035;83;98877;-86
2022/04/28 10:16:41;;;;;;;6.72;3.47;;;;;;;26.60;36.67;101605.48;3521982;83;99226;-84
2022/04/28 10:22:05;;;;;;;10.33;4.37;;;;;;;26.79;36.88;101606.41;3516625;83;98784;-84
2022/04/28 10:32:56;;;;;;;10.75;3.98;;;;;;;27.22;35.44;101595.91;3478138;83;98981;-86
2022/04/28 10:38:11;;;;;;;9.23;3.60;;;;;;;27.57;35.00;101599.37;3503430;83;25998;-87
2022/04/28 10:43:37;;;;;;;9.23;3.90;;;;;;;27.51;35.00;101602.00;3532476;83;99387;-85
2022/04/28 10:48:44;;;;;;;7.58;3.45;;;;;;;27.62;33.17;101598.11;3551206;82;99048;-85
2022/04/28 10:54:09;;;;;;;7.03;3.95;;;;;;;27.08;34.67;101599.23;3513920;83;98767;-85
2022/04/28 10:59:35;;;;;;;;;;;;;;;27.34;33.70;101596.43;3567709;82;98877;-85
2022/04/28 11:04:33;;;;;;;6.83;2.90;;;;;;;27.54;31.69;101587.55;3556438;82;84358;-84
2022/04/28 11:09:55;;;;;;;7.22;3.45;;;;;;;27.48;32.96;101589.42;3547012;82;98836;-84
2022/04/28 11:15:05;;;;;;;8.95;3.20;;;;;;;27.49;33.27;101591.79;3547196;81;98449;-84
2022/04/28 11:20:19;;;;;;;9.03;3.52;;;;;;;27.57;33.38;101590.23;3541755;81;98652;-85
2022/04/28 11:25:22;;;;;;;7.75;3.25;;;;;;;26.72;31.21;101605.27;3514594;83;98793;-85
2022/04/28 11:30:26;;;;;;;5.70;3.05;;;;;;;26.35;33.04;101613.23;3485385;83;98798;-86
2022/04/28 11:35:39;;;;;;;7.78;3.17;;;;;;;26.25;31.68;101608.13;3554878;83;99121;-83
2022/04/28 11:40:37;;;;;;;6.70;2.50;;;;;;;26.42;31.74;101606.72;3558875;82;99193;-84
2022/04/28 11:45:38;;;;;;;6.17;2.90;;;;;;;25.98;31.73;101612.09;3541017;82;99238;-86
2022/04/28 11:50:38;;;;;;;7.80;3.62;;;;;;;25.60;31.18;101598.61;3522222;83;35541;-84
2022/04/28 11:55:40;;;;;;;7.55;3.62;;;;;;;25.20;32.28;101600.27;3471744;84;98716;-85
2022/04/28 12:00:44;;;;;;;6.47;3.15;;;;;;;24.75;31.00;101599.58;3498361;84;98717;-84
2022/04/28 12:05:45;;;;;;;7.43;3.27;;;;;;;24.15;32.33;101602.44;3483368;83;98805;-85
2022/04/28 12:16:06;;;;;;;9.23;3.10;;;;;;;24.08;32.68;101583.71;3504103;83;98895;-85
2022/04/28 12:21:24;;;;;;;7.93;3.47;;;;;;;24.04;32.15;101592.08;3469863;83;98495;-87
2022/04/28 12:26:24;;;;;;;6.37;2.85;;;;;;;23.85;32.37;101585.28;3436996;84;99118;-86
2022/04/28 12:31:31;;;;;;;4.87;2.42;;;;;;;23.40;32.51;101589.20;3495466;83;99200;-87
2022/04/28 12:36:57;;;;;;;6.75;2.80;;;;;;;23.06;33.57;101585.30;3478148;83;98924;-87
2022/04/28 12:41:58;;;;;;;5.75;2.92;;;;;;;22.96;33.24;101579.33;3487321;83;99260;-85
2022/04/28 12:47:05;;;;;;;6.25;2.30;;;;;;;23.07;32.64;101574.88;3489199;82;99298;-86
2022/04/28 12:52:07;;;;;;;7.78;3.12;;;;;;;23.30;34.40;101558.72;3536557;82;98883;-86
2022/04/28 12:57:08;;;;;;;4.70;2.55;;;;;;;23.52;31.78;101558.39;3547995;82;35534;-86
2022/04/28 13:02:10;;;;;;;7.12;2.95;;;;;;;23.28;31.95;101556.95;3525282;83;98907;-87
2022/04/28 13:07:11;;;;;;;6.90;2.58;;;;;;;23.15;32.09;101558.83;3538298;82;98674;-85
2022/04/28 13:12:13;;;;;;;7.85;3.05;;;;;;;23.05;31.71;101562.66;3545072;81;98922;-86
2022/04/28 13:17:14;;;;;;;7.62;3.27;;;;;;;23.24;32.94;101553.45;3504624;83;98922;-86
2022/04/28 13:22:15;;;;;;;7.40;2.95;;;;;;;23.24;32.35;101548.43;3455658;83;98867;-84
2022/04/28 13:27:17;;;;;;;7.28;3.12;;;;;;;23.39;33.28;101553.30;3486928;83;34934;-88
2022/04/28 13:32:18;;;;;;;5.10;2.33;;;;;;;23.20;32.39;101553.33;3555418;82;98521;-86
2022/04/28 13:37:19;;;;;;;8.40;2.85;;;;;;;23.01;31.73;101546.53;3532537;82;99140;-87
2022/04/28 13:42:20;;;;;;;6.85;3.05;;;;;;;22.84;32.84;101549.71;3510042;83;98936;-85
2022/04/28 13:47:21;;;;;;;7.30;2.98;;;;;;;22.56;31.96;101549.67;3514577;83;98945;-85
2022/04/28 13:52:22;;;;;;;5.40;2.30;;;;;;;22.29;33.88;101549.61;3439246;86;99247;-86
2022/04/28 13:57:23;;;;;;;7.80;2.70;;;;;;;22.01;33.52;101543.13;3502879;84;34863;-86
2022/04/28 14:02:24;;;;;;;6.75;2.40;;;;;;;21.94;33.50;101537.03;3491058;83;98995;-86
2022/04/28 14:07:25;;;;;;;7.17;2.60;;;;;;;21.60;34.93;101536.98;3446300;84;98761;-87
2022/04/28 14:12:27;;;;;;;6.42;2.55;;;;;;;21.49;34.84;101530.17;3495943;83;98861;-87
2022/04/28 14:17:29;;;;;;;5.58;2.37;;;;;;;21.14;34.03;101532.09;3437602;85;99221;-88
2022/04/28 14:22:31;;;;;;;6.20;2.50;;;;;;;20.90;34.69;101528.25;3442707;84;98775;-89
2022/04/28 14:27:34;;;;;;;8.13;2.75;;;;;;;20.85;35.10;101539.28;3485889;83;99252;-87
2022/04/28 14:32:38;;;;;;;7.30;2.60;;;;;;;20.55;35.44;101530.86;3484309;83;98996;-86
2022/04/28 14:37:41;;;;;;;5.83;2.58;;;;;;;20.55;35.43;101528.69;3485043;84;98655;-87
2022/04/28 14:42:42;;;;;;;9.03;2.62;;;;;;;20.48;35.37;101528.78;3471235;83;99222;-88
2022/04/28 14:47:43;;;;;;;5.62;2.50;;;;;;;20.47;35.69;101527.97;3491824;84;98928;-87
2022/04/28 14:52:44;;;;;;;5.28;2.22;;;;;;;20.41;35.30;101527.44;3539711;83;99209;-87
2022/04/28 14:57:48;;;;;;;6.05;2.20;;;;;;;20.19;35.08;101526.90;3545330;82;98890;-88
2022/04/28 15:02:50;;;;;;;5.47;2.02;;;;;;;20.03;35.33;101527.23;3494115;84;98766;-87
2022/04/28 15:07:51;;;;;;;6.20;2.27;;;;;;;19.98;35.79;101524.87;3500140;84;98755;-87
2022/04/28 15:12:53;;;;;;;7.12;2.02;;;;;;;20.08;36.53;101522.02;3486473;84;98928;-88
2022/04/28 15:17:54;;;;;;;4.70;2.02;;;;;;;20.09;35.89;101526.99;3497563;84;98840;-89
2022/04/28 15:22:56;;;;;;;6.03;1.90;;;;;;;19.97;35.99;101520.50;3479638;84;99119;-86
2022/04/28 15:27:57;;;;;;;3.98;1.77;;;;;;;20.05;36.59;101520.02;3446222;84;99093;-87
2022/04/28 15:33:00;;;;;;;5.60;2.30;;;;;;;19.70;36.16;101527.35;3488148;83;98847;-87
2022/04/28 15:38:02;;;;;;;6.08;2.10;;;;;;;19.58;35.95;101527.86;3491813;84;98632;-88
2022/04/28 15:43:05;;;;;;;7.65;2.22;;;;;;;19.56;36.93;101540.02;3494029;84;99008;-88
2022/04/28 15:48:07;;;;;;;4.12;1.95;;;;;;;19.34;36.27;101530.22;3503622;84;98821;-83
2022/04/28 15:53:08;;;;;;;6.10;2.40;;;;;;;19.10;37.11;101535.34;3473990;84;99201;-87
2022/04/28 15:58:09;;;;;;;4.37;2.22;;;;;;;18.99;37.85;101533.81;3467156;85;99200;-87
2022/04/28 16:03:11;;;;;;;6.62;2.40;;;;;;;18.87;38.33;101530.09;3494863;83;98833;-87
2022/04/28 16:08:17;;;;;;;5.25;2.10;;;;;;;18.80;38.18;101532.31;3489799;83;99095;-86
2022/04/28 16:13:18;;;;;;;5.95;2.17;;;;;;;18.58;37.95;101528.03;3472677;83;98795;-88
2022/04/28 16:18:19;;;;;;;3.08;2.02;;;;;;;18.29;37.81;101528.50;3523625;82;99090;-88
2022/04/28 16:23:20;;;;;;;5.47;2.20;;;;;;;18.12;37.92;101527.95;3482901;83;99064;-87
2022/04/28 16:28:21;;;;;;;4.15;1.92;;;;;;;17.85;38.85;101530.39;3535333;83;98671;-87
2022/04/28 16:33:22;;;;;;;6.95;2.33;;;;;;;17.57;38.11;101540.73;3533333;83;98863;-88
2022/04/28 16:38:23;;;;;;;5.25;2.30;;;;;;;17.44;39.32;101539.55;3540446;82;98557;-86
2022/04/28 16:43:24;;;;;;;10.98;3.30;;;;;;;17.35;39.64;101537.70;3525449;82;98884;-89
2022/04/28 16:48:26;;;;;;;7.50;2.53;;;;;;;17.27;39.76;101535.51;3545932;82;98958;-85
2022/04/28 16:53:29;;;;;;;8.20;2.02;;;;;;;17.11;39.12;101545.42;3494679;84;99214;-85
2022/04/28 16:58:30;;;;;;;7.80;2.20;;;;;;;16.97;39.78;101538.42;3486580;84;98931;-87
2022/04/28 17:08:51;;;;;;;9.55;2.80;;;;;;;16.81;40.83;101544.93;3474428;84;35822;-83
2022/04/28 17:13:53;;;;;;;7.53;3.40;;;;;;;16.64;39.91;101539.52;3534700;82;99032;-83
2022/04/28 17:18:53;;;;;;;11.48;5.15;;;;;;;16.42;39.90;101539.80;3534537;82;98717;-83
2022/04/28 17:23:56;;;;;;;9.40;3.52;;;;;;;16.27;40.50;101538.91;3542584;82;99055;-84
2022/04/28 17:28:57;;;;;;;8.20;3.52;;;;;;;16.15;41.20;101543.98;3530214;82;99291;-85
2022/04/28 17:33:58;;;;;;;59.45;9.50;;;;;;;16.07;41.41;101548.70;3536543;82;99023;-84
2022/04/28 17:38:59;;;;;;;9.15;3.47;;;;;;;15.98;41.90;101562.72;3545134;82;33265;-84
2022/04/28 17:44:05;;;;;;;24.15;7.58;;;;;;;15.89;42.03;101558.89;3553718;82;98788;-82
2022/04/28 17:49:03;;;;;;;64.10;15.88;;;;;;;15.75;42.34;101567.09;3500949;83;98829;-81
2022/04/28 17:54:05;;;;;;;21.93;5.58;;;;;;;15.60;42.76;101576.48;3559636;82;99458;-82
2022/04/28 18:04:26;;;;;;;9.05;4.37;;;;;;;15.39;43.65;101591.56;3462880;83;99065;-82
2022/04/28 18:09:27;;;;;;;9.13;4.03;;;;;;;15.26;43.58;101594.34;3558073;82;29136;-81
2022/04/28 18:14:29;;;;;;;10.80;4.37;;;;;;;15.06;43.66;101601.86;3550651;82;98838;-81
2022/04/28 18:19:30;;;;;;;21.87;10.15;;;;;;;14.92;44.18;101605.83;3482692;83;98772;-81
2022/04/28 18:24:33;;;;;;;18.32;8.68;;;;;;;14.76;44.20;101610.78;3546380;83;99235;-80
2022/04/28 18:29:35;;;;;;;18.17;10.90;;;;;;;14.58;44.82;101617.48;3509724;83;99131;-81
2022/04/28 18:34:37;;;;;;;23.05;12.28;;;;;;;14.38;45.14;101617.39;3496554;83;99216;-81
2022/04/28 18:45:01;;;;;;;14.18;7.15;;;;;;;13.89;46.13;101634.58;3480274;83;99153;-82
2022/04/28 18:50:08;;;;;;;15.35;6.97;;;;;;;13.68;46.71;101627.91;3545795;82;99445;-79
2022/04/28 18:55:13;;;;;;;13.15;6.53;;;;;;;13.44;47.29;101639.30;3474152;83;98981;-80
2022/04/28 19:00:15;;;;;;;14.63;7.65;;;;;;;13.28;48.74;101647.70;3492241;83;99416;-81
2022/04/28 19:05:16;;;;;;;11.83;6.33;;;;;;;13.10;48.78;101647.94;3477060;83;99334;-81
2022/04/28 19:10:18;;;;;;;26.35;12.80;;;;;;;12.82;49.29;101647.90;3505673;83;99494;-81
2022/04/28 19:15:21;;;;;;;38.53;16.15;;;;;;;12.67;49.87;101653.70;3463603;83;99279;-82
2022/04/28 19:20:23;;;;;;;20.15;8.88;;;;;;;12.40;50.34;101653.84;3455916;84;98725;-83
2022/04/28 19:25:25;;;;;;;18.70;8.53;;;;;;;11.99;51.89;101657.98;3498471;83;99111;-83
2022/04/28 19:30:26;;;;;;;16.10;8.58;;;;;;;11.99;51.89;101657.98;3499475;83;99713;-82
2022/04/28 19:35:27;;;;;;;17.40;8.57;;;;;;;11.98;52.17;101672.13;3488825;83;99074;-82
2022/04/28 19:40:29;;;;;;;17.27;7.85;;;;;;;11.74;52.27;101675.08;3492360;83;99045;-84
2022/04/28 19:45:35;;;;;;;22.58;10.23;;;;;;;11.43;53.00;101656.50;3500746;83;98613;-83
2022/04/28 19:50:39;;;;;;;25.12;9.88;;;;;;;11.40;53.45;101677.08;3500405;83;98006;-84
2022/04/28 19:55:40;;;;;;;21.20;9.40;;;;;;;11.24;53.65;101680.38;3533593;82;98992;-83
2022/04/28 20:00:42;;;;;;;20.85;10.78;;;;;;;11.03;54.25;101681.14;3466297;84;99021;-82
2022/04/28 20:05:43;;;;;;;22.77;12.90;;;;;;;10.76;54.62;101660.69;3480575;83;99395;-81
2022/04/28 20:10:48;;;;;;;28.63;14.20;;;;;;;10.78;55.34;101684.53;3528578;81;99483;-81
2022/04/28 20:15:50;;;;;;;26.87;14.83;;;;;;;10.58;55.64;101691.58;3530043;83;99626;-81
2022/04/28 20:20:51;;;;;;;26.90;14.43;;;;;;;10.41;56.08;101687.70;3527102;82;34783;-81
2022/04/28 20:25:54;;;;;;;24.80;13.47;;;;;;;10.30;56.61;101692.06;3514020;82;99410;-81
2022/04/28 20:30:57;;;;;;;28.12;15.23;;;;;;;10.15;56.97;101693.52;3499291;83;99509;-80
2022/04/28 20:35:59;;;;;;;25.88;14.93;;;;;;;10.03;57.52;101698.21;3477556;83;99502;-81
2022/04/28 20:41:03;;;;;;;29.83;15.27;;;;;;;9.84;57.71;101709.75;3475590;83;99513;-81
2022/04/28 20:46:05;;;;;;;47.08;24.45;;;;;;;9.67;58.16;101714.08;3471419;83;99321;-82
2022/04/28 20:51:08;;;;;;;45.80;21.90;;;;;;;9.52;58.66;101709.77;3501698;82;99166;-82
2022/04/28 20:56:10;;;;;;;40.65;19.55;;;;;;;9.36;59.13;101711.54;3547678;82;98088;-81
2022/04/28 21:01:12;;;;;;;34.75;17.85;;;;;;;9.20;59.47;101712.74;3547980;82;99128;-82
2022/04/28 21:06:15;;;;;;;29.67;14.98;;;;;;;9.08;59.92;101711.32;3525807;81;98923;-83
2022/04/28 21:11:17;;;;;;;26.82;13.40;;;;;;;8.97;60.10;101712.86;3549604;82;98841;-82
2022/04/28 21:16:18;;;;;;;19.00;10.95;;;;;;;8.86;60.76;101713.59;3551468;83;98808;-82
2022/04/28 21:21:19;;;;;;;19.60;9.98;;;;;;;8.77;61.27;101715.61;3514196;83;98940;-81
2022/04/28 21:26:26;;;;;;;18.07;9.40;;;;;;;8.65;61.11;101716.88;3549836;83;97619;-80
2022/04/28 21:31:24;;;;;;;17.62;8.28;;;;;;;8.50;61.52;101709.24;3543935;83;98658;-80
2022/04/28 21:36:27;;;;;;;12.40;6.60;;;;;;;8.39;61.88;101716.25;3529513;83;98675;-80
2022/04/28 21:41:29;;;;;;;13.53;6.03;;;;;;;8.30;61.99;101714.89;3540291;82;98625;-80
2022/04/28 21:46:31;;;;;;;12.53;6.40;;;;;;;8.18;62.20;101720.25;3546206;82;98639;-80
2022/04/28 21:51:32;;;;;;;16.30;5.67;;;;;;;8.08;62.60;101723.35;3548002;82;98710;-80
2022/04/28 21:56:34;;;;;;;13.27;5.50;;;;;;;8.00;62.94;101731.06;3471317;83;98539;-81
2022/04/28 22:01:35;;;;;;;20.50;6.03;;;;;;;7.91;63.04;101734.38;3473410;83;98687;-80
2022/04/28 22:12:01;;;;;;;14.23;6.53;;;;;;;7.71;63.68;101741.95;3539692;82;98712;-81
2022/04/28 22:17:02;;;;;;;13.28;6.83;;;;;;;7.64;64.58;101744.37;3530651;81;99011;-81
2022/04/28 22:22:04;;;;;;;14.58;6.55;;;;;;;7.55;65.07;101740.86;3526765;81;98990;-80
2022/04/28 22:27:08;;;;;;;15.25;7.08;;;;;;;7.47;65.46;101746.35;3463068;84;34708;-80
2022/04/28 22:32:08;;;;;;;16.10;6.30;;;;;;;7.40;65.52;101743.28;3475974;84;98796;-80
2022/04/28 22:37:09;;;;;;;13.27;6.47;;;;;;;7.34;65.97;101750.05;3464378;83;98562;-80
2022/04/28 22:42:11;;;;;;;12.97;6.20;;;;;;;7.27;66.15;101743.71;3500768;83;99118;-80
2022/04/28 22:47:15;;;;;;;15.80;7.20;;;;;;;7.23;66.08;101750.13;3510058;83;99047;-80
2022/04/28 22:52:15;;;;;;;13.28;6.22;;;;;;;7.17;66.25;101746.77;3508996;83;98805;-80
2022/04/28 22:57:16;;;;;;;11.50;5.57;;;;;;;7.11;66.48;101745.33;3522208;83;26199;-80
2022/04/28 23:02:17;;;;;;;11.97;5.70;;;;;;;7.03;66.73;101742.58;3523188;81;98752;-80
2022/04/28 23:07:19;;;;;;;10.53;5.63;;;;;;;6.94;66.52;101739.02;3524962;83;98446;-80
2022/04/28 23:12:20;;;;;;;14.27;6.27;;;;;;;6.89;66.55;101750.95;3516851;83;98953;-80
2022/04/28 23:17:21;;;;;;;14.70;5.97;;;;;;;6.83;66.88;101750.83;3521283;83;99166;-80
2022/04/28 23:22:23;;;;;;;13.93;6.93;;;;;;;6.70;66.78;101741.42;3519347;83;98820;-80
2022/04/28 23:27:24;;;;;;;14.63;7.00;;;;;;;6.63;67.34;101743.80;3544834;83;33910;-80
2022/04/28 23:32:26;;;;;;;17.27;7.10;;;;;;;6.50;67.44;101737.33;3505111;83;98927;-80
2022/04/28 23:42:47;;;;;;;12.68;6.22;;;;;;;6.34;67.83;101739.46;3523467;83;98308;-80
2022/04/28 23:47:48;;;;;;;16.57;8.47;;;;;;;6.25;68.02;101743.54;3517249;83;98741;-79
2022/04/28 23:57:56;;;;;;;19.00;9.07;;;;;;;5.98;68.31;101724.61;3469463;83;99017;-80
